Dana, IL (61321)

12:32 AM CST on February 14, 2016 (GMT -0600)
APRSWXNET | | Change Station
CLOSE
Current Station
Personal Weather Station
Location: Woodford, IL
Elevation: 771 ft
Nearby Weather Stations
Active Advisory: Winter Weather Advisory

Elev 771 ft 40.89 °N, 89.03 °W | Updated 25 minutes ago

Overcast
Overcast
17 °F
Feels Like 9 °F
N
5
Wind Variable Wind from SE
Gusts 8.0 mph

Today
High -- | Low -- °F
--% Chance of Precip.
Yesterday
High -- | Low -- °F
Precip. -- in
Pressure 30.45 in
Visibility 10.0 miles
Clouds Scattered Clouds 12000 ft
Windchill 9 °F
Dew Point 7 °F
Humidity 63%
Rainfall in
Snow Depth Not available.
6:52 AM 5:28 PM
Waxing Crescent, 38% visible
METAR KPNT 140615Z AUTO 11007KT 10SM SCT120 M08/M15 A3045 RMK AO2 T10821152
Pressure 30.45 in
Visibility 10.0 miles
Clouds Scattered Clouds 12000 ft
Windchill 9 °F
Dew Point 7 °F
Humidity 63%
Rainfall in
Snow Depth Not available.
6:52 AM 5:28 PM
Waxing Crescent, 38% visible
METAR KPNT 140615Z AUTO 11007KT 10SM SCT120 M08/M15 A3045 RMK AO2 T10821152

10-Day Weather Forecast

Almanac

Astronomy

Feb. 14, 2016 Rise Set
Actual Time
Civil Twilight
Nautical Twilight
Astronomical Twilight
Moon
Length of Visible Light
Length of Day
Tomorrow will be .
, % of the Moon is Illuminated

Today's Extremes

State Highs State Lows

Community

WunderPhotos

Upload Photos

1,892,757 photos uploaded!

WunderBlog® & News

Nearby

Air Quality

  Air Quality AQ Index Pollutant
Not available.

Snow Depth

Station Depth Elevation

Earthquake Activity

City Distance Mag. Time & Date
Minimum magnitude displayed is 2.5.

Coastal Water Temperatures

Place Temperature

Stations

Nearby Weather Stations

Station Location Temp. Windchill Dew Point Humidity Wind Precip. Elev Updated Type
                   

Watches & Warnings

Winter Weather Advisory
Issued: 8:50 PM CST Feb. 13, 2016 – National Weather Service

... Winter Weather Advisory remains in effect from 6 am Sunday to
midnight CST Sunday night...

* timing... Sunday morning through Sunday evening.

* Snow accumulation... 3 to 5 inches storm total.

* Winds... southeast 15 to 25 mph.

* Main impact... snow accumulation on untreated roads and
surfaces will make travel hazardous. Blowing and drifting snow
will also be possible.

Precautionary/preparedness actions...

A Winter Weather Advisory for snow means that periods of snow
will cause primarily travel difficulties. Be prepared for snow
covered roads and limited visibilities... and use caution while
driving.



Izzi